FCO weather

Leonardo da Vinci–Fiumicino Airport
Rome, Lazio, Italy

Public forecast

Using degrees Celsius for public forecast. Weather courtesy of forecast.io.

METAR (pilot weather report)

Retrieved 2019/04/23 09:20 UTC (19 minutes ago):

LIRF 230920Z 16013KT 6000 SCT012 BKN025 17/15 Q1005 BECMG 20018G28KT

TAF (pilot weather forecast)

Retrieved 2019/04/23 06:00 UTC (4 hours ago):

TAF LIRF 230500Z 2306/2412 14015G25KT 9999 SCT030 TEMPO 2306/2314 4000 SHRA BECMG 2308/2310 20016G26KT BECMG 2318/2320 14010KT